createdAt,value
2022-10-05T00:00:23.934Z,101389.25
2022-10-05T00:02:25.728Z,101385.00
2022-10-05T00:04:27.307Z,101390.13
2022-10-05T00:06:30.310Z,101397.91
2022-10-05T00:08:33.942Z,101390.34
2022-10-05T00:10:35.563Z,101391.41
2022-10-05T00:12:36.992Z,101397.03
2022-10-05T00:14:39.245Z,101400.00
2022-10-05T00:16:40.769Z,101400.94
2022-10-05T00:18:43.240Z,101394.13
2022-10-05T00:20:46.343Z,101389.72
2022-10-05T00:22:50.814Z,101372.94
2022-10-05T00:24:58.083Z,101369.88
2022-10-05T00:27:00.633Z,101366.19
2022-10-05T00:29:08.680Z,101376.13
2022-10-05T00:31:16.579Z,101387.53
2022-10-05T00:33:18.085Z,101392.25
2022-10-05T00:35:19.756Z,101392.38
2022-10-05T00:37:21.273Z,101393.09
2022-10-05T00:39:23.942Z,101386.69
2022-10-05T00:41:33.590Z,101391.50
2022-10-05T00:43:49.901Z,101388.31
2022-10-05T00:45:56.383Z,101388.44
2022-10-05T00:48:12.462Z,101385.72
2022-10-05T00:50:31.643Z,101390.44
2022-10-05T00:52:41.675Z,101377.94
2022-10-05T00:54:52.175Z,101370.72
2022-10-05T00:57:10.720Z,101362.53
2022-10-05T00:59:21.941Z,101369.13
2022-10-05T01:01:29.573Z,101372.38
2022-10-05T01:03:39.147Z,101366.25
2022-10-05T01:05:56.571Z,101358.84
2022-10-05T01:08:10.745Z,101357.78
2022-10-05T01:10:19.092Z,101356.91
2022-10-05T01:12:27.424Z,101355.25
2022-10-05T01:14:34.815Z,101357.50
2022-10-05T01:16:47.279Z,101348.84
2022-10-05T01:18:53.668Z,101358.84
2022-10-05T01:21:03.303Z,101359.78
2022-10-05T01:23:36.828Z,101359.94
2022-10-05T01:25:55.225Z,101349.13
2022-10-05T01:28:06.525Z,101346.41
2022-10-05T01:30:12.231Z,101331.00
2022-10-05T01:32:20.376Z,101325.38
2022-10-05T01:34:30.828Z,101324.88
2022-10-05T01:36:40.444Z,101327.97
2022-10-05T01:38:48.116Z,101341.16
2022-10-05T01:40:58.150Z,101335.31
2022-10-05T01:43:10.308Z,101339.78
2022-10-05T01:45:18.790Z,101339.13
2022-10-05T01:47:28.616Z,101337.47
2022-10-05T01:49:36.783Z,101344.75
2022-10-05T01:51:45.992Z,101335.31
2022-10-05T01:53:59.895Z,101335.44
2022-10-05T01:56:09.791Z,101326.38
2022-10-05T01:58:20.697Z,101328.66
2022-10-05T02:00:22.175Z,101321.88
2022-10-05T02:02:24.180Z,101334.13
2022-10-05T02:05:00.328Z,101338.72
2022-10-05T02:06:54.090Z,101344.97
2022-10-05T02:09:01.567Z,101346.38
2022-10-05T02:11:06.642Z,101354.50
2022-10-05T02:13:13.419Z,101349.84
2022-10-05T02:15:22.982Z,101344.00
2022-10-05T02:17:39.173Z,101351.41
2022-10-05T02:19:44.639Z,101347.69
2022-10-05T02:21:50.438Z,101345.97
2022-10-05T02:23:55.739Z,101347.47
2022-10-05T02:25:58.244Z,101349.69
2022-10-05T02:28:04.179Z,101349.31
2022-10-05T02:30:11.639Z,101353.03
2022-10-05T02:32:23.588Z,101342.13
2022-10-05T02:34:27.388Z,101349.06
2022-10-05T02:36:35.108Z,101347.19
2022-10-05T02:38:43.982Z,101347.19
2022-10-05T02:40:55.767Z,101348.25
2022-10-05T02:43:04.344Z,101340.41
2022-10-05T02:45:16.790Z,101351.44
2022-10-05T02:47:27.474Z,101347.91
2022-10-05T02:49:39.364Z,101352.09
2022-10-05T02:51:46.816Z,101345.59
2022-10-05T02:54:00.132Z,101345.78
2022-10-05T02:56:15.348Z,101351.16
2022-10-05T02:58:22.710Z,101346.66
2022-10-05T03:00:25.826Z,101341.13
2022-10-05T03:02:35.559Z,101339.78
2022-10-05T03:04:42.485Z,101339.56
2022-10-05T03:06:50.302Z,101332.59
2022-10-05T03:08:57.256Z,101332.47
2022-10-05T03:11:07.173Z,101330.00
2022-10-05T03:13:15.891Z,101329.06
2022-10-05T03:15:31.186Z,101330.47
2022-10-05T03:17:44.804Z,101337.41
2022-10-05T03:20:07.610Z,101338.25
2022-10-05T03:22:17.864Z,101334.53
2022-10-05T03:24:36.086Z,101332.75
2022-10-05T03:26:45.130Z,101323.81
2022-10-05T03:29:11.231Z,101333.66
2022-10-05T03:31:21.981Z,101323.69
2022-10-05T03:33:36.943Z,101320.53
2022-10-05T03:35:50.308Z,101312.25
2022-10-05T03:37:59.610Z,101313.84
2022-10-05T03:40:09.783Z,101308.59
2022-10-05T03:42:21.019Z,101309.38
2022-10-05T03:44:36.506Z,101314.28
2022-10-05T03:46:51.312Z,101302.25
2022-10-05T03:49:02.575Z,101298.22
2022-10-05T03:51:07.907Z,101300.16
2022-10-05T03:53:16.302Z,101297.50
2022-10-05T03:55:24.286Z,101297.72
2022-10-05T03:57:28.573Z,101289.38
2022-10-05T03:59:34.160Z,101287.63
2022-10-05T04:01:39.465Z,101288.28
2022-10-05T04:03:45.953Z,101290.09
2022-10-05T04:05:53.649Z,101287.72
2022-10-05T04:08:01.437Z,101281.00
2022-10-05T04:10:05.736Z,101277.91
2022-10-05T04:12:16.417Z,101278.50
2022-10-05T04:14:22.176Z,101276.56
2022-10-05T04:16:28.235Z,101272.53
2022-10-05T04:18:34.493Z,101285.34
2022-10-05T04:20:41.432Z,101284.25
2022-10-05T04:22:53.272Z,101292.09
2022-10-05T04:25:01.241Z,101285.06
2022-10-05T04:27:10.654Z,101291.25
2022-10-05T04:29:19.324Z,101286.41
2022-10-05T04:31:37.008Z,101294.41
2022-10-05T04:33:38.472Z,101295.91
2022-10-05T04:35:56.921Z,101286.34
2022-10-05T04:38:15.759Z,101286.94
2022-10-05T04:40:31.191Z,101288.66
2022-10-05T04:42:37.881Z,101276.84
2022-10-05T04:45:03.122Z,101273.88
2022-10-05T04:47:18.398Z,101274.41
2022-10-05T04:49:41.468Z,101281.38
2022-10-05T04:51:53.359Z,101280.06
2022-10-05T04:54:01.593Z,101276.25
2022-10-05T04:56:11.271Z,101285.41
2022-10-05T04:58:23.877Z,101286.56
2022-10-05T05:00:28.912Z,101287.78
2022-10-05T05:02:43.378Z,101288.50
2022-10-05T05:05:15.128Z,101289.81
2022-10-05T05:07:32.006Z,101287.50
2022-10-05T05:09:55.959Z,101292.09
2022-10-05T05:12:12.303Z,101290.31
2022-10-05T05:14:36.682Z,101279.72
2022-10-05T05:16:40.387Z,101272.22
2022-10-05T05:18:53.958Z,101270.88
2022-10-05T05:21:05.373Z,101271.81
2022-10-05T05:23:18.664Z,101277.50
2022-10-05T05:25:36.441Z,101288.38
2022-10-05T05:27:42.942Z,101292.41
2022-10-05T05:29:53.394Z,101292.19
2022-10-05T05:32:00.970Z,101289.88
2022-10-05T05:34:17.600Z,101290.25
2022-10-05T05:36:31.157Z,101277.56
2022-10-05T05:38:38.619Z,101277.41
2022-10-05T05:40:48.609Z,101263.88
2022-10-05T05:42:57.613Z,101268.91
2022-10-05T05:45:07.404Z,101260.94
2022-10-05T05:47:17.198Z,101263.66
2022-10-05T05:49:22.896Z,101252.78
2022-10-05T05:51:28.871Z,101240.41
2022-10-05T05:53:37.304Z,101244.44
2022-10-05T05:55:42.367Z,101243.72
2022-10-05T05:57:50.961Z,101249.38
2022-10-05T06:00:01.215Z,101256.75
2022-10-05T06:02:06.856Z,101261.78
2022-10-05T06:04:12.658Z,101266.63
2022-10-05T06:06:16.779Z,101265.69
2022-10-05T06:08:27.873Z,101264.88
2022-10-05T06:10:38.190Z,101260.19
2022-10-05T06:12:46.342Z,101262.91
2022-10-05T06:14:53.070Z,101268.97
2022-10-05T06:17:00.480Z,101269.91
2022-10-05T06:19:05.904Z,101274.16
2022-10-05T06:21:18.511Z,101268.88
2022-10-05T06:23:27.047Z,101265.44
2022-10-05T06:25:40.823Z,101269.28
2022-10-05T06:28:01.598Z,101262.63
2022-10-05T06:30:07.593Z,101267.09
2022-10-05T06:32:17.714Z,101271.72
2022-10-05T06:34:32.892Z,101276.06
2022-10-05T06:36:42.799Z,101280.66
2022-10-05T06:39:01.792Z,101278.78
2022-10-05T06:41:13.939Z,101276.09
2022-10-05T06:43:30.563Z,101275.03
2022-10-05T06:45:44.725Z,101281.31
2022-10-05T06:47:49.837Z,101286.66
2022-10-05T06:49:56.813Z,101286.41
2022-10-05T06:52:08.184Z,101283.66
2022-10-05T06:54:26.176Z,101284.38
2022-10-05T06:56:33.316Z,101289.69
2022-10-05T06:58:46.510Z,101294.88
2022-10-05T07:00:54.033Z,101294.41
2022-10-05T07:03:03.280Z,101289.38
2022-10-05T07:05:30.795Z,101282.72
2022-10-05T07:07:41.466Z,101282.13
2022-10-05T07:09:53.220Z,101295.88
2022-10-05T07:12:06.767Z,101289.88
2022-10-05T07:14:22.424Z,101289.53
2022-10-05T07:16:36.395Z,101289.09
2022-10-05T07:18:50.189Z,101286.41
2022-10-05T07:21:00.027Z,101290.53
2022-10-05T07:23:19.317Z,101282.72
2022-10-05T07:25:26.469Z,101283.16
2022-10-05T07:27:32.159Z,101273.16
2022-10-05T07:29:39.315Z,101276.38
2022-10-05T07:31:47.627Z,101270.75
2022-10-05T07:33:58.713Z,101279.72
2022-10-05T07:36:08.421Z,101267.31
2022-10-05T07:38:19.611Z,101276.56
2022-10-05T07:40:25.921Z,101283.28
2022-10-05T07:42:46.042Z,101289.31
2022-10-05T07:44:58.129Z,101277.28
2022-10-05T07:47:07.086Z,101283.91
2022-10-05T07:49:18.155Z,101290.56
2022-10-05T07:51:29.112Z,101300.31
2022-10-05T07:53:36.154Z,101306.19
2022-10-05T07:55:44.055Z,101297.75
2022-10-05T07:57:53.761Z,101289.63
2022-10-05T08:00:03.591Z,101284.44
2022-10-05T08:02:17.889Z,101279.78
2022-10-05T08:04:24.246Z,101293.75
2022-10-05T08:06:46.614Z,101282.19
2022-10-05T08:08:52.538Z,101291.94
2022-10-05T08:11:01.851Z,101294.56
2022-10-05T08:13:10.481Z,101308.13
2022-10-05T08:15:15.604Z,101295.34
2022-10-05T08:17:25.656Z,101291.03
2022-10-05T08:19:35.270Z,101282.53
2022-10-05T08:21:44.267Z,101272.94
2022-10-05T08:23:51.576Z,101259.56
2022-10-05T08:26:11.489Z,101258.88
2022-10-05T08:28:20.105Z,101252.28
2022-10-05T08:30:23.690Z,101254.63
2022-10-05T08:32:28.803Z,101266.06
2022-10-05T08:34:40.050Z,101256.97
2022-10-05T08:36:54.018Z,101254.50
2022-10-05T08:38:59.453Z,101235.31
2022-10-05T08:41:38.543Z,101222.19
2022-10-05T08:44:00.878Z,101222.88
2022-10-05T08:46:31.954Z,101231.06
2022-10-05T08:49:01.248Z,101230.41
2022-10-05T08:51:23.339Z,101231.94
2022-10-05T08:53:46.758Z,101222.91
2022-10-05T08:56:04.280Z,101229.25
2022-10-05T08:58:39.231Z,101229.44
2022-10-05T09:00:53.699Z,101228.47
2022-10-05T09:03:25.090Z,101225.91
2022-10-05T09:05:58.864Z,101221.59
2022-10-05T09:08:39.378Z,101213.66
2022-10-05T09:11:01.020Z,101212.91
2022-10-05T09:13:25.684Z,101216.88
2022-10-05T09:15:47.014Z,101210.31
2022-10-05T09:18:19.174Z,101219.88
2022-10-05T09:20:30.221Z,101218.59
2022-10-05T09:22:36.771Z,101217.22
2022-10-05T09:24:53.962Z,101210.44
2022-10-05T09:27:03.224Z,101207.44
2022-10-05T09:29:22.980Z,101211.84
2022-10-05T09:31:47.049Z,101213.00
2022-10-05T09:34:24.479Z,101207.63
2022-10-05T09:36:55.342Z,101203.56
2022-10-05T09:39:49.616Z,101206.69
2022-10-05T09:42:20.819Z,101212.78
2022-10-05T09:44:57.703Z,101200.97
2022-10-05T09:47:35.357Z,101199.69
2022-10-05T09:50:06.950Z,101204.41
2022-10-05T09:52:25.615Z,101197.31
2022-10-05T09:54:51.719Z,101191.44
2022-10-05T09:57:10.455Z,101199.06
2022-10-05T09:59:39.786Z,101195.41
2022-10-05T10:02:15.132Z,101194.75
2022-10-05T10:04:33.568Z,101172.06
2022-10-05T10:07:25.393Z,101179.56
2022-10-05T10:09:37.881Z,101178.22
2022-10-05T10:11:54.472Z,101170.94
2022-10-05T10:14:34.814Z,101172.69
2022-10-05T10:16:46.100Z,101174.41
2022-10-05T10:19:21.922Z,101178.50
2022-10-05T10:21:40.800Z,101170.16
2022-10-05T10:24:00.409Z,101174.31
2022-10-05T10:26:46.589Z,101166.47
2022-10-05T10:29:04.082Z,101159.59
2022-10-05T10:31:37.570Z,101155.53
2022-10-05T10:33:56.605Z,101157.66
2022-10-05T10:36:07.100Z,101164.13
2022-10-05T10:38:35.053Z,101166.31
2022-10-05T10:40:55.548Z,101174.25
2022-10-05T10:43:21.594Z,101174.72
2022-10-05T10:45:45.109Z,101179.41
2022-10-05T10:47:51.181Z,101187.22
2022-10-05T10:50:22.718Z,101182.06
2022-10-05T10:52:41.882Z,101183.66
2022-10-05T10:55:16.929Z,101189.50
2022-10-05T10:57:28.247Z,101190.56
2022-10-05T11:00:21.410Z,101180.22
2022-10-05T11:02:34.973Z,101184.50
2022-10-05T11:05:23.095Z,101184.31
2022-10-05T11:07:44.364Z,101178.47
2022-10-05T11:10:03.820Z,101174.84
2022-10-05T11:12:54.353Z,101169.75
2022-10-05T11:15:31.305Z,101162.38
2022-10-05T11:18:01.204Z,101161.13
2022-10-05T11:20:41.979Z,101158.94
2022-10-05T11:22:57.325Z,101153.13
2022-10-05T11:25:19.367Z,101151.75
2022-10-05T11:27:45.222Z,101150.94
2022-10-05T11:30:13.685Z,101143.69
2022-10-05T11:32:53.263Z,101137.38
2022-10-05T11:35:36.324Z,101128.91
2022-10-05T11:38:04.016Z,101130.22
2022-10-05T11:40:33.284Z,101122.59
2022-10-05T11:43:03.656Z,101122.00
2022-10-05T11:45:23.765Z,101122.50
2022-10-05T11:47:31.526Z,101128.63
2022-10-05T11:49:40.004Z,101112.41
2022-10-05T11:51:54.627Z,101123.53
2022-10-05T11:54:06.532Z,101106.41
2022-10-05T11:56:20.184Z,101113.97
2022-10-05T11:58:28.218Z,101107.66
2022-10-05T12:00:36.067Z,101111.34
2022-10-05T12:02:59.111Z,101108.44
2022-10-05T12:05:07.661Z,101109.66
2022-10-05T12:07:17.837Z,101110.50
2022-10-05T12:09:33.703Z,101102.50
2022-10-05T12:11:53.236Z,101105.28
2022-10-05T12:14:04.634Z,101097.03
2022-10-05T12:16:13.005Z,101100.22
2022-10-05T12:18:23.533Z,101101.34
2022-10-05T12:20:31.367Z,101099.75
2022-10-05T12:22:38.304Z,101097.28
2022-10-05T12:24:57.834Z,101095.25
2022-10-05T12:27:04.847Z,101091.75
2022-10-05T12:29:13.634Z,101088.13
2022-10-05T12:31:25.676Z,101075.28
2022-10-05T12:33:34.676Z,101084.38
2022-10-05T12:35:48.512Z,101083.59
2022-10-05T12:37:53.997Z,101086.78
2022-10-05T12:40:02.510Z,101078.75
2022-10-05T12:42:15.741Z,101080.59
2022-10-05T12:44:36.976Z,101075.19
2022-10-05T12:46:47.138Z,101081.63
2022-10-05T12:49:21.946Z,101068.44
2022-10-05T12:51:34.586Z,101066.41
2022-10-05T12:53:52.894Z,101070.38
2022-10-05T12:56:03.279Z,101063.19
2022-10-05T12:58:18.385Z,101064.75
2022-10-05T13:00:23.220Z,101062.06
2022-10-05T13:02:34.761Z,101060.56
2022-10-05T13:04:43.628Z,101053.22
2022-10-05T13:07:02.948Z,101057.00
2022-10-05T13:09:10.498Z,101063.91
2022-10-05T13:11:15.322Z,101060.38
2022-10-05T13:13:43.209Z,101060.53
2022-10-05T13:15:50.930Z,101065.03
2022-10-05T13:17:59.866Z,101064.75
2022-10-05T13:20:12.086Z,101073.19
2022-10-05T13:22:31.627Z,101069.31
2022-10-05T13:24:41.853Z,101064.50
2022-10-05T13:26:49.567Z,101057.19
2022-10-05T13:28:59.790Z,101058.31
2022-10-05T13:31:11.166Z,101070.59
2022-10-05T13:33:20.042Z,101068.66
2022-10-05T13:35:43.830Z,101059.63
2022-10-05T13:37:55.341Z,101059.31
2022-10-05T13:40:10.985Z,101058.72
2022-10-05T13:42:17.614Z,101058.97
2022-10-05T13:44:27.464Z,101048.38
2022-10-05T13:46:37.519Z,101050.97
2022-10-05T13:48:54.915Z,101050.78
2022-10-05T13:51:07.180Z,101043.81
2022-10-05T13:53:19.955Z,101046.13
2022-10-05T13:55:36.833Z,101053.81
2022-10-05T13:57:48.074Z,101049.22
2022-10-05T13:59:53.724Z,101046.72
2022-10-05T14:01:58.532Z,101051.00
2022-10-05T14:04:13.760Z,101054.25
2022-10-05T14:06:26.298Z,101047.38
2022-10-05T14:08:31.543Z,101048.88
2022-10-05T14:10:37.122Z,101050.00
2022-10-05T14:12:41.282Z,101032.69
2022-10-05T14:14:47.308Z,101039.78
2022-10-05T14:16:51.949Z,101037.50
2022-10-05T14:18:57.893Z,101034.81
2022-10-05T14:21:02.291Z,101032.38
2022-10-05T14:23:13.287Z,101039.03
2022-10-05T14:25:15.979Z,101034.22
2022-10-05T14:27:21.105Z,101020.41
2022-10-05T14:29:24.773Z,101021.38
2022-10-05T14:31:33.053Z,101014.00
2022-10-05T14:33:35.468Z,101023.44
2022-10-05T14:35:47.064Z,101008.09
2022-10-05T14:37:54.591Z,101013.34
2022-10-05T14:39:58.803Z,100998.47
2022-10-05T14:42:13.578Z,101003.47
2022-10-05T14:44:27.786Z,101001.78
2022-10-05T14:46:31.239Z,100994.13
2022-10-05T14:48:41.169Z,100988.13
2022-10-05T14:50:52.547Z,100989.19
2022-10-05T14:53:13.010Z,100993.34
2022-10-05T14:55:35.005Z,100984.06
2022-10-05T14:57:45.979Z,100987.03
2022-10-05T15:00:01.659Z,100989.00
2022-10-05T15:02:18.936Z,100982.59
2022-10-05T15:04:33.934Z,100982.88
2022-10-05T15:06:38.584Z,100986.22
2022-10-05T15:08:52.048Z,100980.09
2022-10-05T15:11:00.234Z,100979.53
2022-10-05T15:13:11.920Z,100984.78
2022-10-05T15:15:26.751Z,100983.47
2022-10-05T15:17:37.741Z,100981.16
2022-10-05T15:19:51.650Z,100984.97
2022-10-05T15:22:00.317Z,100991.09
2022-10-05T15:24:06.124Z,100981.81
2022-10-05T15:26:28.405Z,100982.81
2022-10-05T15:28:37.488Z,100984.31
2022-10-05T15:30:45.914Z,100983.09
2022-10-05T15:33:03.414Z,100976.13
2022-10-05T15:35:34.640Z,100969.88
2022-10-05T15:37:42.090Z,100972.09
2022-10-05T15:39:49.312Z,100983.34
2022-10-05T15:41:59.298Z,100976.75
2022-10-05T15:44:09.193Z,100971.88
2022-10-05T15:46:16.133Z,100983.91
2022-10-05T15:48:22.630Z,100982.44
2022-10-05T15:50:27.342Z,100977.06
2022-10-05T15:52:36.435Z,100975.75
2022-10-05T15:55:00.579Z,100981.38
2022-10-05T15:57:11.127Z,100982.38
2022-10-05T15:59:23.191Z,100988.84
2022-10-05T16:01:40.652Z,100983.00
2022-10-05T16:03:49.145Z,100981.78
2022-10-05T16:05:56.561Z,100983.00
2022-10-05T16:07:58.144Z,100979.81
2022-10-05T16:10:06.780Z,100978.56
2022-10-05T16:12:29.761Z,100980.78
2022-10-05T16:14:55.698Z,100978.69
2022-10-05T16:17:11.513Z,100983.56
2022-10-05T16:19:21.246Z,100987.84
2022-10-05T16:21:30.872Z,100976.84
2022-10-05T16:23:42.429Z,100986.88
2022-10-05T16:25:57.735Z,100990.91
2022-10-05T16:28:18.308Z,100975.34
2022-10-05T16:30:22.114Z,100983.03
2022-10-05T16:32:29.050Z,100988.41
2022-10-05T16:34:41.635Z,100984.34
2022-10-05T16:36:55.232Z,100974.03
2022-10-05T16:39:03.005Z,100963.25
2022-10-05T16:41:14.572Z,100963.84
2022-10-05T16:43:29.838Z,100974.22
2022-10-05T16:45:45.986Z,100967.59
2022-10-05T16:47:57.644Z,100964.38
2022-10-05T16:50:08.457Z,100962.59
2022-10-05T16:52:16.119Z,100960.38
2022-10-05T16:54:18.639Z,100964.72
2022-10-05T16:56:25.943Z,100974.25
2022-10-05T16:58:40.513Z,100963.19
2022-10-05T17:00:57.874Z,100963.41
2022-10-05T17:03:15.933Z,100975.06
2022-10-05T17:05:31.144Z,100971.69
2022-10-05T17:07:47.645Z,100983.97
2022-10-05T17:10:05.401Z,100983.75
2022-10-05T17:12:20.544Z,100982.47
2022-10-05T17:14:36.609Z,100977.09
2022-10-05T17:16:51.367Z,100978.28
2022-10-05T17:19:06.097Z,100978.81
2022-10-05T17:21:15.364Z,100981.91
2022-10-05T17:23:27.257Z,100982.06
2022-10-05T17:25:42.788Z,100958.25
2022-10-05T17:27:55.344Z,100983.38
2022-10-05T17:30:38.927Z,100989.59
2022-10-05T17:32:56.250Z,100989.16
2022-10-05T17:35:17.992Z,100982.34
2022-10-05T17:37:34.648Z,100986.97
2022-10-05T17:39:49.103Z,100987.19
2022-10-05T17:41:50.714Z,100990.00
2022-10-05T17:44:21.457Z,100984.50
2022-10-05T17:46:37.725Z,100988.91
2022-10-05T17:49:17.346Z,100991.06
2022-10-05T17:51:58.743Z,100985.16
2022-10-05T17:54:18.971Z,100989.88
2022-10-05T17:56:21.249Z,100990.19
2022-10-05T17:58:59.240Z,100990.41
2022-10-05T18:01:13.746Z,100984.50
2022-10-05T18:03:34.998Z,100989.75
2022-10-05T18:05:37.899Z,100990.63
2022-10-05T18:07:40.169Z,100985.69
2022-10-05T18:09:59.733Z,100994.78
2022-10-05T18:12:36.611Z,100987.38
2022-10-05T18:15:00.268Z,100980.09
2022-10-05T18:17:04.046Z,100980.09
2022-10-05T18:19:14.693Z,100974.72
2022-10-05T18:21:37.743Z,100982.44
2022-10-05T18:23:42.918Z,100970.16
2022-10-05T18:25:48.399Z,100979.59
2022-10-05T18:28:16.405Z,100982.56
2022-10-05T18:30:21.848Z,100980.00
2022-10-05T18:32:34.486Z,100995.88
2022-10-05T18:34:42.661Z,100987.09
2022-10-05T18:36:57.482Z,100991.16
2022-10-05T18:39:07.362Z,100988.38
2022-10-05T18:41:17.788Z,100975.28
2022-10-05T18:43:30.536Z,100986.06
2022-10-05T18:45:44.646Z,100977.66
2022-10-05T18:47:55.499Z,100980.00
2022-10-05T18:50:10.573Z,100987.09
2022-10-05T18:52:23.159Z,100980.22
2022-10-05T18:54:39.368Z,100974.59
2022-10-05T18:56:44.900Z,100977.38
2022-10-05T18:58:57.244Z,100981.22
2022-10-05T19:01:37.369Z,100982.19
2022-10-05T19:03:50.039Z,100977.81
2022-10-05T19:06:02.212Z,100970.53
2022-10-05T19:08:09.952Z,100976.97
2022-10-05T19:10:17.129Z,100982.88
2022-10-05T19:12:27.698Z,100978.06
2022-10-05T19:14:37.639Z,100977.88
2022-10-05T19:16:54.176Z,100979.38
2022-10-05T19:19:27.201Z,100984.84
2022-10-05T19:21:40.738Z,100984.75
2022-10-05T19:23:58.224Z,100987.03
2022-10-05T19:26:13.689Z,100991.44
2022-10-05T19:28:23.899Z,100985.59
2022-10-05T19:30:33.344Z,101008.66
2022-10-05T19:32:46.366Z,101010.47
2022-10-05T19:35:03.115Z,101005.44
2022-10-05T19:37:10.191Z,101010.59
2022-10-05T19:39:21.881Z,101013.28
2022-10-05T19:41:36.122Z,101011.75
2022-10-05T19:43:51.798Z,101024.00
2022-10-05T19:46:01.748Z,101017.66
2022-10-05T19:48:16.792Z,101026.41
2022-10-05T19:50:30.509Z,101026.19
2022-10-05T19:52:40.874Z,101014.72
2022-10-05T19:54:43.757Z,101021.69
2022-10-05T19:56:47.457Z,101020.94
2022-10-05T19:58:50.170Z,101033.38
2022-10-05T20:00:57.515Z,101028.97
2022-10-05T20:03:10.333Z,101034.50
2022-10-05T20:05:14.043Z,101048.13
2022-10-05T20:07:17.626Z,101045.75
2022-10-05T20:09:21.554Z,101049.59
2022-10-05T20:11:25.053Z,101045.28
2022-10-05T20:13:26.942Z,101046.91
2022-10-05T20:15:30.511Z,101047.66
2022-10-05T20:17:32.461Z,101047.78
2022-10-05T20:19:38.410Z,101055.81
2022-10-05T20:21:46.759Z,101056.00
2022-10-05T20:24:06.310Z,101063.19
2022-10-05T20:26:07.788Z,101072.84
2022-10-05T20:28:10.866Z,101082.72
2022-10-05T20:30:15.705Z,101074.78
2022-10-05T20:32:21.023Z,101082.63
2022-10-05T20:34:22.914Z,101077.34
2022-10-05T20:36:24.375Z,101090.16
2022-10-05T20:38:26.180Z,101084.03
2022-10-05T20:40:29.446Z,101091.03
2022-10-05T20:42:31.237Z,101084.78
2022-10-05T20:44:34.781Z,101098.00
2022-10-05T20:46:36.495Z,101093.31
2022-10-05T20:48:38.129Z,101089.47
2022-10-05T20:50:39.665Z,101098.06
2022-10-05T20:52:43.188Z,101101.06
2022-10-05T20:56:52.010Z,101113.75
2022-10-05T20:58:53.504Z,101114.16
2022-10-05T21:00:56.462Z,101110.53
2022-10-05T21:02:58.129Z,101120.38
2022-10-05T21:04:59.774Z,101113.31
2022-10-05T21:07:02.267Z,101121.03
2022-10-05T21:09:04.807Z,101117.59
2022-10-05T21:11:06.357Z,101120.84
2022-10-05T21:13:07.813Z,101123.13
2022-10-05T21:15:09.300Z,101128.28
2022-10-05T21:17:12.373Z,101123.47
2022-10-05T21:19:15.403Z,101121.94
2022-10-05T21:21:18.063Z,101123.66
2022-10-05T21:23:19.506Z,101126.03
2022-10-05T21:25:21.016Z,101129.47
2022-10-05T21:27:22.470Z,101129.47
2022-10-05T21:29:24.125Z,101127.56
2022-10-05T21:31:26.018Z,101117.88
2022-10-05T21:33:29.171Z,101134.13
2022-10-05T21:35:31.466Z,101129.63
2022-10-05T21:37:33.088Z,101133.91
2022-10-05T21:39:34.562Z,101134.66
2022-10-05T21:41:36.143Z,101143.47
2022-10-05T21:43:37.675Z,101141.75
2022-10-05T21:45:39.310Z,101135.22
2022-10-05T21:47:40.903Z,101131.47
2022-10-05T21:49:43.952Z,101142.19
2022-10-05T21:51:45.485Z,101145.75
2022-10-05T21:53:51.791Z,101149.38
2022-10-05T21:55:53.448Z,101140.47
2022-10-05T21:57:56.612Z,101145.00
2022-10-05T22:00:06.070Z,101140.03
2022-10-05T22:02:07.827Z,101148.84
2022-10-05T22:04:09.314Z,101141.97
2022-10-05T22:06:12.608Z,101149.16
2022-10-05T22:08:20.796Z,101149.03
2022-10-05T22:10:22.855Z,101154.63
2022-10-05T22:12:24.413Z,101151.72
2022-10-05T22:14:25.912Z,101144.75
2022-10-05T22:16:28.557Z,101144.09
2022-10-05T22:18:30.536Z,101146.03
2022-10-05T22:20:34.210Z,101150.72
2022-10-05T22:22:37.270Z,101149.88
2022-10-05T22:24:38.705Z,101148.34
2022-10-05T22:26:41.974Z,101151.03
2022-10-05T22:28:44.464Z,101150.06
2022-10-05T22:30:46.132Z,101152.00
2022-10-05T22:32:47.609Z,101151.16
2022-10-05T22:34:49.230Z,101157.28
2022-10-05T22:36:50.757Z,101163.59
2022-10-05T22:38:53.683Z,101157.56
2022-10-05T22:40:55.441Z,101160.81
2022-10-05T22:42:57.526Z,101166.38
2022-10-05T22:44:59.078Z,101164.88
2022-10-05T22:47:00.875Z,101169.38
2022-10-05T22:49:02.337Z,101165.53
2022-10-05T22:51:04.005Z,101170.22
2022-10-05T22:53:05.545Z,101159.28
2022-10-05T22:55:09.382Z,101165.63
2022-10-05T22:57:11.075Z,101166.19
2022-10-05T22:59:12.943Z,101162.63
2022-10-05T23:01:17.052Z,101174.78
2022-10-05T23:03:18.816Z,101165.97
2022-10-05T23:05:20.290Z,101175.53
2022-10-05T23:07:22.134Z,101170.16
2022-10-05T23:09:23.611Z,101180.13
2022-10-05T23:11:27.708Z,101180.34
2022-10-05T23:13:30.068Z,101183.78
2022-10-05T23:15:31.553Z,101177.66
2022-10-05T23:17:33.504Z,101185.16
2022-10-05T23:19:34.961Z,101180.56
2022-10-05T23:21:36.482Z,101178.84
2022-10-05T23:23:39.865Z,101187.84
2022-10-05T23:25:41.461Z,101188.03
2022-10-05T23:27:44.475Z,101190.06
2022-10-05T23:29:46.005Z,101192.66
2022-10-05T23:31:47.484Z,101176.19
2022-10-05T23:33:49.106Z,101193.81
2022-10-05T23:35:57.371Z,101190.38
2022-10-05T23:37:59.381Z,101196.91
2022-10-05T23:40:00.844Z,101197.09
2022-10-05T23:42:02.333Z,101198.25
2022-10-05T23:44:05.186Z,101202.66
2022-10-05T23:46:07.321Z,101193.75
2022-10-05T23:48:08.853Z,101204.47
2022-10-05T23:50:10.587Z,101212.53
2022-10-05T23:52:12.476Z,101211.47
2022-10-05T23:54:14.354Z,101216.16
2022-10-05T23:56:16.046Z,101222.19
2022-10-05T23:58:18.048Z,101218.00
